Planada, California
Current Conditions -  °F | °C
As of 6:53 AM on Friday 19 Dec 2014 (Local Time) from KMCE Reporting Station
Few Clouds Few Clouds  
Wind Chill: 42°   Ceiling: Unl
Heat Index: 46°   Visibility: 10mi
Dew Point: 42°   Wind: 8mph
Humidity: 86%   Direction: 110°ESE
Pressure: 30.18"   Gusts: NA
Location:  37.29°N, 120.32°W
Report Text: KMCE 191453Z AUTO 11007KT 10SM FEW060 08/06 A3018 RMK AO2 SLP220 T00780056 56005
Loading
Personal Weather Stations






























Interactive Weather Map New forecast layout! Learn more

10-Day Weather Forecast

Advertisements
Track Severe Weather on mobile